Southwest Georgia Regional Airport

Airport
ICAO code: 
KABY
IATA Code: 
ABY
Summary
ICAO Region: 
NAM
Territory: 
Location: 
Albany, Georgia,
Serving: 
Albany
Elevation: 
197 ft
Coordinates: 
Aerial View: 
31° 31' 57.875" N, 84° 11' 47.264" W
Metar
Observation
KABY 021553Z 28004KT 10SM CLR 19/11 A3019 RMK AO2 SLP224 T01940111
Station
Albany, Southwest Georgia Regional Airport
Date/Time
2021-12-02 15:53:00
Wind direction
280°
Wind speed
04 kts
Lowest cloud amount
n/a
Temperature
19.4°C
Dew point
11.1°C
Humidity
58%
Weather condition
n/a

Description

Southwest Georgia Regional Airport is a public airport located 5 km southwest of the central business district of Albany, a city in Dougherty County, Georgia.

Climatology

Humid “subtropical” climate (Köppen climate classification Cfa) - characterized by hot, humid summers and cool winters. Significant amounts of precipitation occur in all seasons in most areas.

Runways

Designator Length Width Surface Rops
16/34 1585 46 ASP Yes/Yes
4/22 2012 46 ASP Yes/Yes
Airport map: 
Aerial View: 

SKYbrary Partners:

Safety knowledge contributed by: